Time;durP1;ratioP1;P1;durP2;ratioP2;P2;SDS_P1;SDS_P2;PMS_P1;PMS_P2;Temp;Humidity;BMP_temperature;BMP_pressure;BME280_temperature;BME280_humidity;BME280_pressure;Samples;Min_cycle;Max_cycle;Signal;HPM_P1;HPM_P2
2022/04/23 00:02:22;;;;;;;7.20;1.93;;;;;;;17.31;41.05;93522.22;5078085;28;20621;-73
2022/04/23 00:04:47;;;;;;;3.30;2.27;;;;;;;17.55;41.44;93533.09;5077133;28;20268;-73
2022/04/23 00:07:13;;;;;;;6.90;4.17;;;;;;;17.75;40.21;93540.19;5072553;28;20181;-73
2022/04/23 00:09:38;;;;;;;4.00;2.23;;;;;;;17.59;40.05;93549.22;5079150;28;20232;-74
2022/04/23 00:12:04;;;;;;;4.07;1.90;;;;;;;18.01;39.21;93528.84;5084650;28;20211;-74
2022/04/23 00:14:29;;;;;;;4.30;2.60;;;;;;;17.78;39.69;93554.00;5078966;28;20173;-74
2022/04/23 00:17:00;;;;;;;7.00;2.10;;;;;;;17.91;39.20;93521.72;5086162;28;20750;-74
2022/04/23 00:19:25;;;;;;;3.07;2.30;;;;;;;18.22;39.10;93540.16;5083229;28;20185;-74
2022/04/23 00:21:51;;;;;;;4.60;2.10;;;;;;;18.58;38.26;93546.13;5087334;28;20428;-74
2022/04/23 00:24:17;;;;;;;4.60;2.17;;;;;;;18.03;39.53;93543.38;5077200;28;20205;-74
2022/04/23 00:26:43;;;;;;;3.13;1.77;;;;;;;17.99;39.81;93536.25;5089793;28;20245;-74
2022/04/23 00:29:09;;;;;;;6.00;2.47;;;;;;;17.96;40.08;93540.22;5078094;28;20412;-75
2022/04/23 00:31:36;;;;;;;2.53;2.30;;;;;;;17.30;41.04;93541.81;5075266;28;20408;-74
2022/04/23 00:34:02;;;;;;;2.70;2.50;;;;;;;17.81;40.72;93550.78;5080606;28;20193;-74
2022/04/23 00:36:28;;;;;;;4.23;1.90;;;;;;;17.78;40.23;93559.28;5077972;28;20428;-74
2022/04/23 00:38:54;;;;;;;5.00;2.63;;;;;;;17.55;40.78;93532.31;5076481;28;20420;-75
2022/04/23 00:44:06;;;;;;;2.50;1.90;;;;;;;17.63;40.41;93545.00;5087640;28;20459;-74
2022/04/23 00:46:31;;;;;;;2.53;2.13;;;;;;;17.80;39.53;93542.06;5075802;28;20415;-74
2022/04/23 00:48:59;;;;;;;6.73;2.30;;;;;;;17.47;40.46;93524.88;5082009;28;20412;-74
2022/04/23 00:51:29;;;;;;;2.70;1.93;;;;;;;16.69;42.93;93531.06;5087073;28;20166;-74
2022/04/23 00:53:56;;;;;;;5.27;2.57;;;;;;;16.77;42.46;93543.81;5076347;28;20460;-73
2022/04/23 00:56:23;;;;;;;4.77;2.93;;;;;;;17.42;41.00;93523.03;5073567;28;20956;-74
2022/04/23 00:58:49;;;;;;;3.03;2.67;;;;;;;17.87;39.60;93533.88;5086845;28;20431;-74
2022/04/23 01:01:15;;;;;;;3.83;2.20;;;;;;;18.39;38.23;93556.53;5087916;28;20442;-74
2022/04/23 01:03:42;;;;;;;3.50;2.00;;;;;;;18.51;38.75;93535.81;5088332;28;20459;-74
2022/04/23 01:06:10;;;;;;;5.73;2.47;;;;;;;18.43;38.75;93540.91;5088187;28;20174;-73
2022/04/23 01:08:37;;;;;;;3.50;1.90;;;;;;;18.48;38.21;93552.28;5083293;28;20425;-74
2022/04/23 01:11:03;;;;;;;8.23;2.13;;;;;;;18.75;38.34;93553.75;5068190;28;20423;-74
2022/04/23 01:13:28;;;;;;;4.80;2.40;;;;;;;18.75;38.00;93547.66;5085041;28;20431;-73
2022/04/23 01:16:04;;;;;;;6.20;3.00;;;;;;;18.02;39.55;93563.00;5074345;28;20562;-73
2022/04/23 01:18:31;;;;;;;4.00;2.57;;;;;;;18.19;39.76;93561.88;5084568;28;20258;-74
2022/04/23 01:21:01;;;;;;;8.53;2.60;;;;;;;18.16;39.27;93563.22;5102251;28;20401;-74
2022/04/23 01:23:26;;;;;;;5.00;2.67;;;;;;;18.24;39.02;93559.22;5077093;28;20464;-74
2022/04/23 01:25:54;;;;;;;4.80;2.60;;;;;;;18.87;37.90;93556.09;5069283;28;20949;-74
2022/04/23 01:28:23;;;;;;;6.30;2.30;;;;;;;18.08;39.77;93537.28;5087913;28;20209;-74
2022/04/23 01:30:53;;;;;;;6.50;2.60;;;;;;;17.87;40.20;93537.34;5084362;28;20430;-74
2022/04/23 01:33:19;;;;;;;3.83;2.23;;;;;;;18.36;39.51;93519.97;5084514;28;20448;-74
2022/04/23 01:35:46;;;;;;;4.30;2.83;;;;;;;18.38;39.29;93532.97;5069646;28;20445;-74
2022/04/23 01:38:12;;;;;;;10.70;2.50;;;;;;;17.94;40.03;93529.88;5083240;28;20420;-74
2022/04/23 01:40:38;;;;;;;5.37;2.03;;;;;;;18.57;38.44;93522.56;5087682;28;20427;-75
2022/04/23 01:43:04;;;;;;;6.20;2.13;;;;;;;18.68;38.36;93532.03;5079221;28;20535;-75
2022/04/23 01:45:30;;;;;;;1.70;1.07;;;;;;;18.59;38.53;93545.09;5081559;28;20420;-74
2022/04/23 01:47:55;;;;;;;3.07;2.77;;;;;;;18.85;38.35;93548.41;5082350;28;20419;-75
2022/04/23 01:50:21;;;;;;;4.27;2.20;;;;;;;19.14;37.76;93539.00;5088759;28;20170;-74
2022/04/23 01:52:47;;;;;;;5.73;2.20;;;;;;;18.96;38.05;93543.09;5090506;28;20182;-74
2022/04/23 01:55:13;;;;;;;4.10;2.50;;;;;;;18.89;38.25;93538.06;5088454;28;20317;-74
2022/04/23 01:57:38;;;;;;;5.57;2.10;;;;;;;18.96;37.99;93548.38;5089189;28;20424;-74
2022/04/23 02:00:10;;;;;;;5.50;2.13;;;;;;;19.08;37.28;93547.00;5087761;28;20201;-74
2022/04/23 02:02:38;;;;;;;9.70;2.87;;;;;;;18.79;37.87;93544.19;5076683;28;20197;-74
2022/04/23 02:05:07;;;;;;;6.70;2.10;;;;;;;18.89;37.76;93549.47;5088455;28;20417;-74
2022/04/23 02:07:39;;;;;;;7.53;2.37;;;;;;;18.82;38.17;93554.28;5083344;28;20478;-74
2022/04/23 02:10:06;;;;;;;9.20;4.07;;;;;;;18.88;38.39;93563.78;5072249;28;20445;-74
2022/04/23 02:12:33;;;;;;;2.60;2.50;;;;;;;18.68;39.13;93561.97;5087196;28;20493;-73
2022/04/23 02:14:59;;;;;;;3.10;2.80;;;;;;;18.57;39.93;93563.09;5068640;28;20412;-73
2022/04/23 02:17:35;;;;;;;5.90;2.47;;;;;;;18.19;40.70;93572.47;5107552;28;20807;-74
2022/04/23 02:20:02;;;;;;;4.37;2.50;;;;;;;17.99;41.20;93554.78;5088425;28;20442;-74
2022/04/23 02:22:28;;;;;;;4.20;2.70;;;;;;;17.81;41.46;93550.78;5087343;28;20507;-73
2022/04/23 02:24:53;;;;;;;5.03;3.10;;;;;;;17.92;41.78;93560.34;5087917;28;20528;-74
2022/04/23 02:27:19;;;;;;;7.80;2.73;;;;;;;17.88;41.32;93561.94;5082792;28;20189;-74
2022/04/23 02:29:44;;;;;;;4.57;2.90;;;;;;;17.68;42.13;93539.69;5072309;28;20170;-74
2022/04/23 02:32:10;;;;;;;3.80;2.90;;;;;;;17.87;41.75;93555.03;5067920;28;20356;-75
2022/04/23 02:34:35;;;;;;;8.33;2.40;;;;;;;17.71;41.69;93562.97;5077918;28;20277;-74
2022/04/23 02:37:02;;;;;;;6.27;2.33;;;;;;;17.57;42.84;93572.50;5066791;28;20171;-74
2022/04/23 02:39:27;;;;;;;3.23;2.73;;;;;;;17.65;42.20;93584.41;5068927;28;20167;-74
2022/04/23 02:41:52;;;;;;;4.90;3.27;;;;;;;17.64;42.25;93582.81;5084206;28;20427;-74
2022/04/23 02:44:19;;;;;;;7.33;3.57;;;;;;;17.13;43.69;93586.19;5078533;28;20213;-74
2022/04/23 02:46:45;;;;;;;3.73;2.57;;;;;;;17.17;43.59;93590.69;5083710;28;20176;-74
2022/04/23 02:49:11;;;;;;;6.10;3.00;;;;;;;17.50;42.85;93593.13;5075435;28;20417;-74
2022/04/23 02:51:36;;;;;;;7.03;2.80;;;;;;;16.22;46.12;93582.09;5113376;28;20446;-74
2022/04/23 02:54:02;;;;;;;5.20;3.70;;;;;;;16.76;44.72;93579.97;5085899;28;20292;-74
2022/04/23 02:56:33;;;;;;;3.50;2.67;;;;;;;16.35;45.91;93584.28;5075466;28;20234;-74
2022/04/23 02:58:59;;;;;;;5.60;2.97;;;;;;;16.66;45.56;93584.44;5086067;28;20211;-74
2022/04/23 03:01:26;;;;;;;6.00;3.40;;;;;;;16.54;45.65;93587.28;5084061;28;20414;-73
2022/04/23 03:03:54;;;;;;;4.27;3.00;;;;;;;16.09;46.69;93578.88;5079229;28;20205;-73
2022/04/23 03:06:21;;;;;;;8.37;2.87;;;;;;;15.94;46.97;93590.13;5066375;28;20417;-73
2022/04/23 03:08:46;;;;;;;3.40;2.43;;;;;;;16.39;46.28;93580.09;5081411;28;20433;-73
2022/04/23 03:11:11;;;;;;;3.10;2.90;;;;;;;16.12;46.51;93574.91;5082929;28;20425;-74
2022/04/23 03:13:37;;;;;;;3.83;3.10;;;;;;;16.39;46.45;93577.47;5081159;28;20898;-73
2022/04/23 03:16:03;;;;;;;4.10;2.67;;;;;;;15.92;46.99;93586.16;5073593;28;20265;-73
2022/04/23 03:18:28;;;;;;;4.33;3.20;;;;;;;16.13;46.75;93585.22;5081281;28;20192;-73
2022/04/23 03:20:55;;;;;;;6.80;3.20;;;;;;;16.31;46.35;93589.28;5085369;28;20189;-73
2022/04/23 03:23:21;;;;;;;4.87;3.43;;;;;;;16.27;46.30;93584.78;5082802;28;20186;-73
2022/04/23 03:25:46;;;;;;;3.43;3.13;;;;;;;16.19;46.44;93586.06;5083832;28;20447;-73
2022/04/23 03:28:13;;;;;;;4.13;3.73;;;;;;;16.11;46.85;93583.91;5071086;28;20475;-74
2022/04/23 03:30:40;;;;;;;4.43;3.43;;;;;;;16.43;46.07;93589.09;5080536;28;20165;-74
2022/04/23 03:33:05;;;;;;;6.57;4.23;;;;;;;16.03;47.01;93598.38;5081418;28;20428;-73
2022/04/23 03:35:31;;;;;;;7.03;3.50;;;;;;;15.88;47.83;93600.88;5076507;28;20421;-73
2022/04/23 03:37:56;;;;;;;4.53;2.70;;;;;;;16.00;47.33;93602.28;5083708;28;20178;-74
2022/04/23 03:40:23;;;;;;;6.20;3.27;;;;;;;15.84;48.06;93605.06;5072643;28;20271;-74
2022/04/23 03:42:48;;;;;;;4.23;3.53;;;;;;;16.19;47.39;93605.31;5084005;28;20186;-74
2022/04/23 03:45:15;;;;;;;6.00;3.60;;;;;;;16.51;46.49;93615.00;5072970;28;20423;-75
2022/04/23 03:47:45;;;;;;;7.33;3.37;;;;;;;16.14;46.98;93626.41;5082337;28;20250;-73
2022/04/23 03:50:11;;;;;;;8.40;3.20;;;;;;;16.12;46.92;93625.06;5065338;28;20474;-74
2022/04/23 03:52:37;;;;;;;4.93;3.23;;;;;;;16.24;46.92;93624.88;5069775;28;20429;-73
2022/04/23 03:55:09;;;;;;;6.97;3.00;;;;;;;15.94;47.53;93632.34;5079309;28;20471;-73
2022/04/23 03:57:49;;;;;;;5.17;2.77;;;;;;;15.74;48.07;93637.44;5108928;28;20290;-74
2022/04/23 04:00:20;;;;;;;4.43;2.70;;;;;;;15.64;48.23;93632.84;5071126;28;20420;-73
2022/04/23 04:02:45;;;;;;;4.73;3.20;;;;;;;15.88;47.89;93632.53;5081252;28;20463;-73
2022/04/23 04:05:12;;;;;;;5.97;3.90;;;;;;;16.24;46.86;93624.88;5064522;28;20463;-74
2022/04/23 04:07:45;;;;;;;4.87;3.60;;;;;;;15.97;47.42;93623.09;5078291;28;20251;-73
2022/04/23 04:10:12;;;;;;;9.07;3.57;;;;;;;16.25;46.44;93623.84;5066645;28;20978;-73
2022/04/23 04:12:38;;;;;;;3.80;3.37;;;;;;;16.34;46.39;93619.66;5076589;28;20432;-73
2022/04/23 04:15:09;;;;;;;5.97;3.30;;;;;;;16.35;46.50;93626.53;5084795;28;20419;-73
2022/04/23 04:17:36;;;;;;;6.53;3.40;;;;;;;16.35;46.78;93626.53;5084919;28;20188;-73
2022/04/23 04:20:03;;;;;;;4.37;2.90;;;;;;;16.67;45.93;93628.28;5084348;28;20972;-74
2022/04/23 04:22:30;;;;;;;5.53;3.33;;;;;;;16.30;46.52;93634.44;5080704;28;20454;-73
2022/04/23 04:24:56;;;;;;;3.93;3.63;;;;;;;16.74;46.02;93628.84;5078342;28;20468;-73
2022/04/23 04:27:21;;;;;;;4.80;3.43;;;;;;;16.47;45.71;93635.06;5068255;28;20441;-73
2022/04/23 04:29:47;;;;;;;8.87;3.53;;;;;;;16.55;46.47;93625.84;5069442;28;20420;-74
2022/04/23 04:32:13;;;;;;;5.20;3.30;;;;;;;16.77;45.55;93638.91;5081029;28;20256;-74
2022/04/23 04:34:39;;;;;;;4.83;3.07;;;;;;;16.34;46.75;93643.44;5084699;28;20182;-74
2022/04/23 04:37:07;;;;;;;6.13;3.87;;;;;;;16.47;46.56;93640.34;5083690;28;20439;-74
2022/04/23 04:39:34;;;;;;;3.33;3.00;;;;;;;16.57;46.16;93640.38;5069585;28;20194;-74
2022/04/23 04:42:01;;;;;;;4.50;4.20;;;;;;;16.77;46.04;93650.28;5073172;28;20527;-74
2022/04/23 04:44:26;;;;;;;4.07;3.67;;;;;;;16.62;46.10;93654.66;5070077;28;20456;-74
2022/04/23 04:46:52;;;;;;;5.00;4.43;;;;;;;17.04;45.31;93659.13;5083397;28;20447;-74
2022/04/23 04:49:18;;;;;;;3.80;3.50;;;;;;;17.06;45.48;93657.03;5077120;28;20179;-74
2022/04/23 04:51:44;;;;;;;10.17;4.13;;;;;;;17.12;45.39;93658.63;5068040;28;20192;-74
2022/04/23 04:54:09;;;;;;;9.83;4.10;;;;;;;17.24;45.74;93661.03;5076059;28;20468;-74
2022/04/23 04:56:35;;;;;;;3.97;3.53;;;;;;;17.18;45.15;93668.16;5071264;28;20186;-74
2022/04/23 04:59:01;;;;;;;5.67;3.87;;;;;;;17.24;45.44;93668.97;5077485;28;20208;-74
2022/04/23 05:01:27;;;;;;;4.40;3.80;;;;;;;17.47;44.64;93667.72;5069401;28;20175;-74
2022/04/23 05:03:53;;;;;;;6.60;4.37;;;;;;;17.61;44.50;93673.31;5086737;28;20205;-75
2022/04/23 05:06:20;;;;;;;4.63;4.20;;;;;;;17.62;44.37;93686.25;5072394;28;20451;-74
2022/04/23 05:08:46;;;;;;;7.33;4.43;;;;;;;17.52;44.59;93691.53;5082364;28;20957;-74
2022/04/23 05:11:12;;;;;;;6.83;3.20;;;;;;;17.60;44.36;93688.38;5079994;28;20486;-74
2022/04/23 05:13:38;;;;;;;3.90;3.50;;;;;;;17.45;44.72;93696.28;5075705;28;20428;-74
2022/04/23 05:16:07;;;;;;;7.23;3.93;;;;;;;17.19;45.39;93709.41;5075315;28;20181;-74
2022/04/23 05:18:34;;;;;;;4.87;3.63;;;;;;;16.44;46.92;93720.06;5074700;28;20181;-74
2022/04/23 05:20:59;;;;;;;4.80;4.50;;;;;;;16.50;47.65;93729.59;5087566;28;20427;-74
2022/04/23 05:23:25;;;;;;;8.90;5.00;;;;;;;16.16;48.55;93735.19;5078772;28;20465;-74
2022/04/23 05:25:51;;;;;;;6.40;5.60;;;;;;;16.71;47.45;93727.91;5072513;28;20421;-74
2022/04/23 05:28:16;;;;;;;8.97;5.20;;;;;;;16.32;48.07;93730.81;5083989;28;20185;-75
2022/04/23 05:30:43;;;;;;;6.30;5.70;;;;;;;16.48;48.03;93739.63;5084805;28;20233;-74
2022/04/23 05:33:09;;;;;;;8.53;5.10;;;;;;;17.09;46.41;93733.97;5098250;28;20188;-74
2022/04/23 05:35:34;;;;;;;8.20;6.00;;;;;;;17.49;45.50;93732.53;5105614;28;20411;-74
2022/04/23 05:38:00;;;;;;;8.67;5.67;;;;;;;16.96;46.64;93737.06;5086513;28;20241;-74
2022/04/23 05:40:25;;;;;;;8.47;4.80;;;;;;;17.15;46.03;93734.78;5087429;28;20178;-74
2022/04/23 05:42:55;;;;;;;8.87;6.83;;;;;;;17.26;46.41;93731.09;5076917;28;20622;-74
2022/04/23 05:45:22;;;;;;;5.93;4.40;;;;;;;17.72;45.14;93725.97;5067688;28;20228;-74
2022/04/23 05:47:48;;;;;;;9.13;5.40;;;;;;;17.79;44.48;93724.94;5087132;28;20440;-75
2022/04/23 05:50:13;;;;;;;10.63;4.63;;;;;;;17.80;44.48;93731.81;5073836;28;20791;-75
2022/04/23 05:52:38;;;;;;;6.23;4.63;;;;;;;17.97;44.54;93727.13;5076674;28;20193;-74
2022/04/23 05:55:05;;;;;;;12.17;4.80;;;;;;;17.83;44.83;93732.09;5067814;28;20217;-74
2022/04/23 05:57:31;;;;;;;5.20;4.70;;;;;;;18.23;43.64;93729.75;5084257;28;20185;-74
2022/04/23 05:59:57;;;;;;;6.13;4.57;;;;;;;18.03;43.46;93725.28;5075381;28;20417;-75
2022/04/23 06:02:22;;;;;;;6.90;4.80;;;;;;;17.92;43.60;93719.94;5072105;28;20504;-74
2022/04/23 06:04:49;;;;;;;8.13;4.57;;;;;;;18.16;44.52;93721.31;5079309;28;20266;-75
2022/04/23 06:07:18;;;;;;;6.47;4.20;;;;;;;18.51;43.03;93723.94;5088716;28;20181;-74
2022/04/23 06:09:45;;;;;;;4.10;3.80;;;;;;;18.30;42.91;93728.44;5088334;28;20423;-74
2022/04/23 06:12:10;;;;;;;5.07;4.33;;;;;;;18.22;43.89;93726.34;5079500;28;21075;-74
2022/04/23 06:14:36;;;;;;;4.97;4.43;;;;;;;17.89;44.02;93723.13;5067028;28;20409;-74
2022/04/23 06:17:01;;;;;;;6.60;4.53;;;;;;;17.90;44.15;93729.22;5072302;28;20661;-74
2022/04/23 06:19:30;;;;;;;5.80;4.43;;;;;;;18.19;43.58;93740.09;5078983;28;20174;-74
2022/04/23 06:21:57;;;;;;;6.17;3.97;;;;;;;19.00;41.92;93735.81;5075599;28;20269;-74
2022/04/23 06:24:22;;;;;;;4.67;4.10;;;;;;;18.79;42.54;93737.69;5072880;28;20578;-74
2022/04/23 06:26:48;;;;;;;6.13;4.20;;;;;;;19.45;41.29;93735.94;5086626;28;20420;-74
2022/04/23 06:29:13;;;;;;;6.27;4.50;;;;;;;19.78;40.57;93733.69;5082150;28;20182;-75
2022/04/23 06:31:39;;;;;;;5.00;4.10;;;;;;;20.29;39.91;93739.44;5068896;28;20212;-74
2022/04/23 06:34:04;;;;;;;7.10;4.30;;;;;;;20.21;40.10;93731.28;5077273;28;20589;-75
2022/04/23 06:36:30;;;;;;;7.57;4.30;;;;;;;19.94;41.17;93727.22;5078398;28;20262;-74
2022/04/23 06:38:55;;;;;;;7.73;4.73;;;;;;;20.35;40.68;93726.91;5085991;28;20258;-74
2022/04/23 06:41:20;;;;;;;6.63;4.47;;;;;;;20.75;39.90;93732.97;5079873;28;20182;-74
2022/04/23 06:43:46;;;;;;;8.57;5.07;;;;;;;21.06;39.24;93735.34;5078299;28;20198;-73
2022/04/23 06:46:11;;;;;;;4.53;3.43;;;;;;;20.96;40.98;93730.13;5083045;28;20166;-74
2022/04/23 06:48:37;;;;;;;5.43;4.00;;;;;;;19.97;43.44;93737.28;5079812;28;20206;-74
2022/04/23 06:51:02;;;;;;;5.43;4.10;;;;;;;19.61;45.15;93744.63;5068774;28;20181;-74
2022/04/23 06:53:28;;;;;;;4.83;4.43;;;;;;;20.00;44.20;93731.44;5079354;28;20248;-73
2022/04/23 06:55:53;;;;;;;5.17;4.27;;;;;;;20.48;43.40;93728.94;5065376;28;20179;-73
2022/04/23 06:58:19;;;;;;;4.23;3.60;;;;;;;20.75;43.10;93735.63;5081772;28;20284;-74
2022/04/23 07:00:44;;;;;;;6.43;4.73;;;;;;;20.52;43.76;93741.69;5084844;28;20533;-75
2022/04/23 07:03:10;;;;;;;4.63;4.20;;;;;;;20.55;44.17;93731.28;5085497;28;20205;-74
2022/04/23 07:05:35;;;;;;;5.53;3.90;;;;;;;20.89;43.40;93735.78;5078331;28;20252;-73
2022/04/23 07:08:02;;;;;;;4.90;3.87;;;;;;;20.54;44.10;93736.88;5082579;28;20185;-74
2022/04/23 07:10:30;;;;;;;5.20;4.50;;;;;;;20.45;44.03;93742.78;5067371;28;20513;-73
2022/04/23 07:12:56;;;;;;;5.07;4.57;;;;;;;20.81;43.50;93745.19;5073051;28;20842;-74
2022/04/23 07:15:23;;;;;;;4.37;3.97;;;;;;;20.75;43.78;93748.94;5083117;28;20415;-74
2022/04/23 07:17:50;;;;;;;5.73;3.80;;;;;;;20.94;43.35;93759.66;5081875;28;20520;-74
2022/04/23 07:20:17;;;;;;;4.53;3.57;;;;;;;21.14;42.95;93763.22;5074016;28;20428;-74
2022/04/23 07:24:02;;;;;;;6.70;3.97;;;;;;;20.13;45.07;93764.56;5079763;28;20521;-73
2022/04/23 07:25:29;;;;;;;5.57;3.13;;;;;;;20.90;43.75;93771.94;5074112;28;20578;-74
2022/04/23 07:27:54;;;;;;;4.77;4.17;;;;;;;19.87;45.74;93769.22;5077633;28;20504;-73
2022/04/23 07:30:20;;;;;;;6.70;4.10;;;;;;;19.67;46.17;93781.50;5069191;28;20196;-74
2022/04/23 07:32:45;;;;;;;4.87;3.20;;;;;;;19.65;46.25;93783.63;5077001;28;20178;-74
2022/04/23 07:37:54;;;;;;;5.33;3.80;;;;;;;19.46;47.89;93793.25;5077209;28;20212;-74
2022/04/23 07:40:20;;;;;;;5.03;3.30;;;;;;;19.90;46.10;93789.91;5084066;28;20922;-73
2022/04/23 07:42:46;;;;;;;4.47;3.67;;;;;;;19.86;45.93;93789.66;5081530;28;20224;-73
2022/04/23 07:45:12;;;;;;;9.20;4.30;;;;;;;20.92;43.51;93793.72;5074496;28;20182;-75
2022/04/23 07:47:38;;;;;;;7.80;3.67;;;;;;;21.28;42.93;93800.59;5078102;28;20598;-73
2022/04/23 07:50:04;;;;;;;3.63;3.40;;;;;;;21.41;42.73;93794.59;5068207;28;20186;-74
2022/04/23 07:52:30;;;;;;;4.47;3.27;;;;;;;20.74;44.22;93797.88;5070037;28;20213;-73
2022/04/23 07:54:55;;;;;;;4.10;2.87;;;;;;;19.18;48.25;93798.13;5076194;28;20967;-73
2022/04/23 07:57:22;;;;;;;4.13;3.33;;;;;;;18.18;52.12;93798.63;5070211;28;20182;-73
2022/04/23 07:59:48;;;;;;;4.50;3.40;;;;;;;18.45;52.42;93809.78;5080718;28;20191;-74
2022/04/23 08:02:13;;;;;;;6.50;3.53;;;;;;;18.62;51.49;93809.53;5083162;28;20460;-73
2022/04/23 08:04:39;;;;;;;5.10;3.10;;;;;;;18.78;51.95;93810.34;5082608;28;20504;-73
2022/04/23 08:07:04;;;;;;;3.77;3.43;;;;;;;19.11;51.69;93814.28;5073691;28;20194;-73
2022/04/23 08:09:31;;;;;;;6.40;3.80;;;;;;;19.80;49.57;93816.50;5076091;28;20240;-74
2022/04/23 08:11:57;;;;;;;7.30;3.50;;;;;;;19.37;49.87;93816.09;5084042;28;20265;-74
2022/04/23 08:14:22;;;;;;;8.30;3.80;;;;;;;18.90;52.00;93820.69;5071574;28;20424;-74
2022/04/23 08:16:49;;;;;;;4.83;3.73;;;;;;;19.75;49.00;93820.00;5080560;28;20200;-74
2022/04/23 08:19:17;;;;;;;4.63;3.30;;;;;;;17.96;53.57;93804.94;5073946;28;20175;-73
2022/04/23 08:21:43;;;;;;;2.87;2.67;;;;;;;17.95;53.36;93816.59;5079898;28;20419;-73
2022/04/23 08:24:08;;;;;;;3.23;2.37;;;;;;;18.10;53.58;93824.56;5075576;28;20455;-73
2022/04/23 08:26:34;;;;;;;1.77;1.67;;;;;;;18.21;53.13;93829.88;5083769;28;20268;-73
2022/04/23 08:31:43;;;;;;;2.50;2.20;;;;;;;18.25;52.33;93830.94;5073331;28;20261;-74
2022/04/23 08:34:09;;;;;;;2.03;1.93;;;;;;;18.14;52.86;93830.94;5087991;28;20444;-74
2022/04/23 08:36:37;;;;;;;2.50;1.70;;;;;;;17.34;53.31;93809.97;5077404;28;20175;-73
2022/04/23 08:39:08;;;;;;;4.87;3.00;;;;;;;17.81;52.21;93831.31;5069873;28;20190;-73
2022/04/23 08:41:35;;;;;;;3.33;1.80;;;;;;;18.05;51.84;93837.00;5076950;28;20417;-74
2022/04/23 08:44:05;;;;;;;6.80;2.60;;;;;;;18.85;49.69;93840.03;5066020;28;20473;-74
2022/04/23 08:46:40;;;;;;;3.63;2.67;;;;;;;18.80;49.77;93847.16;5081230;28;20736;-73
2022/04/23 08:49:17;;;;;;;2.53;1.70;;;;;;;18.24;50.70;93848.69;5069133;28;20416;-73
2022/04/23 08:51:53;;;;;;;2.73;2.07;;;;;;;18.72;49.39;93845.84;5073562;28;20477;-73
2022/04/23 08:54:23;;;;;;;1.90;1.77;;;;;;;19.09;48.21;93850.91;5067419;28;20456;-73
2022/04/23 08:56:48;;;;;;;1.60;1.50;;;;;;;18.17;49.99;93847.34;5075821;28;20408;-74
2022/04/23 08:59:15;;;;;;;2.03;1.50;;;;;;;18.24;49.17;93850.56;5067719;28;20425;-74
2022/04/23 09:01:44;;;;;;;2.60;1.70;;;;;;;18.82;47.38;93850.38;5078137;28;20177;-73
2022/04/23 09:04:11;;;;;;;3.23;1.97;;;;;;;19.03;47.05;93854.63;5087566;28;20474;-74
2022/04/23 09:06:42;;;;;;;4.37;1.77;;;;;;;19.82;45.39;93849.66;5081242;28;20852;-73
2022/04/23 09:09:14;;;;;;;2.67;1.50;;;;;;;19.77;44.76;93838.28;5078042;28;20425;-74
2022/04/23 09:11:44;;;;;;;1.77;1.67;;;;;;;19.73;45.12;93845.19;5078091;28;20440;-73
2022/04/23 09:14:23;;;;;;;2.63;1.70;;;;;;;19.45;45.98;93839.44;5081037;28;20427;-73
2022/04/23 09:25:13;;;;;;;3.57;2.00;;;;;;;19.52;45.62;93842.59;5076199;28;20509;-74
2022/04/23 09:27:41;;;;;;;2.30;1.37;;;;;;;19.07;46.74;93850.38;5075324;28;20438;-74
2022/04/23 09:30:07;;;;;;;2.03;1.90;;;;;;;18.84;47.36;93846.41;5078672;28;20466;-74
2022/04/23 09:32:34;;;;;;;4.10;2.30;;;;;;;18.91;47.69;93846.94;5077859;28;20919;-74
2022/04/23 09:35:18;;;;;;;1.60;1.50;;;;;;;19.67;45.38;93836.44;5065605;28;20417;-74
2022/04/23 09:40:29;;;;;;;5.43;1.83;;;;;;;20.00;46.47;93829.69;5065802;28;20424;-74
2022/04/23 09:43:00;;;;;;;3.23;2.10;;;;;;;20.04;47.48;93822.75;5078985;28;20431;-74
2022/04/23 09:45:26;;;;;;;1.80;1.27;;;;;;;20.83;45.05;93819.34;5085456;28;20427;-75
2022/04/23 09:47:53;;;;;;;3.13;1.70;;;;;;;21.46;44.68;93807.88;5082141;28;20431;-75
2022/04/23 09:50:19;;;;;;;2.23;1.60;;;;;;;22.09;42.73;93803.41;5067254;28;20485;-75
2022/04/23 09:52:45;;;;;;;3.23;1.93;;;;;;;21.70;43.40;93807.06;5103242;28;20440;-74
2022/04/23 09:55:12;;;;;;;2.10;1.63;;;;;;;21.19;43.77;93809.19;5074295;28;20267;-75
2022/04/23 09:57:38;;;;;;;1.53;1.43;;;;;;;22.29;42.17;93811.16;5086307;28;20519;-75
2022/04/23 10:00:06;;;;;;;1.60;1.50;;;;;;;23.00;40.74;93806.56;5077217;28;20485;-75
2022/04/23 10:02:32;;;;;;;3.60;1.93;;;;;;;23.53;39.76;93810.72;5078118;28;20206;-75
2022/04/23 10:05:01;;;;;;;4.20;1.93;;;;;;;22.94;40.73;93806.97;5065995;28;20448;-75
2022/04/23 10:07:29;;;;;;;2.33;2.13;;;;;;;23.31;39.11;93798.03;5072805;28;20535;-75
2022/04/23 10:09:57;;;;;;;3.10;1.77;;;;;;;23.91;37.55;93802.53;5085655;28;20420;-75
2022/04/23 10:12:25;;;;;;;4.47;2.10;;;;;;;24.07;37.72;93799.53;5090587;28;20435;-75
2022/04/23 10:14:59;;;;;;;2.10;1.90;;;;;;;23.94;37.97;93801.94;5074771;28;20425;-74
2022/04/23 10:17:27;;;;;;;4.50;2.00;;;;;;;24.28;37.16;93794.53;5073059;28;20432;-74
2022/04/23 10:19:54;;;;;;;2.93;1.83;;;;;;;24.11;37.44;93795.16;5074193;28;20450;-75
2022/04/23 10:22:39;;;;;;;3.87;2.13;;;;;;;24.11;36.92;93792.50;5077643;28;20532;-75
2022/04/23 10:25:24;;;;;;;4.27;2.27;;;;;;;24.20;37.01;93793.38;5065654;28;20445;-75
2022/04/23 10:27:51;;;;;;;5.00;2.93;;;;;;;23.70;36.75;93785.31;5082925;28;20943;-75
2022/04/23 10:30:17;;;;;;;5.03;2.47;;;;;;;23.64;37.49;93786.47;5073853;28;20420;-75
2022/04/23 10:32:43;;;;;;;6.70;2.40;;;;;;;24.21;36.61;93780.78;5077277;28;20420;-75
2022/04/23 10:35:17;;;;;;;2.67;1.70;;;;;;;23.28;38.39;93776.50;5074418;28;20693;-75
2022/04/23 10:37:45;;;;;;;3.43;2.23;;;;;;;24.13;36.44;93784.97;5073651;28;20630;-75
2022/04/23 10:40:10;;;;;;;5.43;2.40;;;;;;;23.90;36.57;93781.44;5065278;28;20456;-75
2022/04/23 10:42:38;;;;;;;3.80;2.27;;;;;;;24.02;37.13;93778.25;5076083;28;20432;-75
2022/04/23 10:45:05;;;;;;;3.10;2.80;;;;;;;23.73;37.49;93782.03;5074101;28;20183;-75
2022/04/23 10:47:34;;;;;;;6.63;2.47;;;;;;;24.00;36.28;93772.41;5079391;28;20505;-75
2022/04/23 10:50:19;;;;;;;6.07;2.80;;;;;;;22.51;39.52;93775.09;5065446;28;20419;-76
2022/04/23 10:52:55;;;;;;;8.30;2.50;;;;;;;22.85;38.02;93779.34;5076360;28;20953;-75
2022/04/23 10:55:22;;;;;;;5.00;2.50;;;;;;;22.85;38.28;93787.38;5075622;28;20461;-75
2022/04/23 10:57:51;;;;;;;6.53;2.43;;;;;;;21.87;39.27;93775.41;5065788;28;20429;-74
2022/04/23 11:00:19;;;;;;;6.10;2.23;;;;;;;21.89;39.88;93780.47;5066916;28;20416;-74
2022/04/23 11:03:08;;;;;;;4.53;2.67;;;;;;;23.02;37.74;93789.47;5077281;28;20494;-74
2022/04/23 11:13:53;;;;;;;7.07;3.20;;;;;;;24.78;34.46;93780.34;5076057;28;20468;-74
2022/04/23 11:16:21;;;;;;;6.07;2.17;;;;;;;24.07;35.31;93778.16;5065487;28;20420;-74
2022/04/23 11:18:52;;;;;;;3.73;1.97;;;;;;;25.00;34.03;93780.28;5085206;28;20430;-75
2022/04/23 11:21:23;;;;;;;2.63;2.43;;;;;;;25.70;33.22;93772.59;5082831;28;20938;-75
2022/04/23 11:23:49;;;;;;;7.80;2.50;;;;;;;26.87;31.46;93775.56;5066148;28;20464;-75
2022/04/23 11:26:22;;;;;;;5.73;2.60;;;;;;;25.44;33.85;93775.19;5068858;28;20421;-75
2022/04/23 11:28:58;;;;;;;8.37;2.30;;;;;;;24.22;35.54;93785.06;5067451;28;20433;-75
2022/04/23 11:31:24;;;;;;;5.33;2.80;;;;;;;24.03;36.09;93785.19;5070671;28;20442;-75
2022/04/23 11:33:55;;;;;;;4.60;2.40;;;;;;;23.76;36.81;93778.78;5084414;28;20428;-74
2022/04/23 11:36:28;;;;;;;9.07;2.53;;;;;;;23.81;36.31;93785.91;5073371;28;20408;-75
2022/04/23 11:38:55;;;;;;;3.70;2.17;;;;;;;23.15;37.28;93781.53;5074964;28;20790;-74
2022/04/23 11:41:32;;;;;;;2.97;2.50;;;;;;;22.56;38.47;93783.03;5068113;28;20783;-74
2022/04/23 11:44:09;;;;;;;5.73;1.90;;;;;;;22.47;38.28;93788.22;5079655;28;20460;-74
2022/04/23 11:46:45;;;;;;;4.47;2.83;;;;;;;22.96;37.54;93800.22;5086300;28;20400;-74
2022/04/23 11:49:31;;;;;;;3.67;2.50;;;;;;;22.66;38.75;93796.19;5078795;28;20515;-74
2022/04/23 11:52:14;;;;;;;3.60;1.90;;;;;;;22.78;37.88;93791.22;5105487;28;20432;-74
2022/04/23 11:54:44;;;;;;;3.03;1.63;;;;;;;22.66;38.35;93790.06;5079822;28;20460;-75
2022/04/23 11:57:39;;;;;;;3.33;1.93;;;;;;;21.05;44.88;93794.94;5076440;28;20436;-74
2022/04/23 12:00:05;;;;;;;4.63;2.00;;;;;;;19.94;48.30;93785.66;5067849;28;20426;-74
2022/04/23 12:02:32;;;;;;;3.77;1.80;;;;;;;20.55;47.67;93810.25;5075940;28;20540;-75
2022/04/23 12:05:00;;;;;;;3.87;1.83;;;;;;;21.44;45.42;93804.72;5080576;28;20494;-71